createdAt,value
2018-12-02T00:00:46.865Z,-4.7
2018-12-02T00:01:37.729Z,-4.7
2018-12-02T00:02:27.531Z,-4.7
2018-12-02T00:03:17.031Z,-4.8
2018-12-02T00:04:07.393Z,-4.7
2018-12-02T00:04:57.959Z,-4.8
2018-12-02T00:05:47.468Z,-4.8
2018-12-02T00:06:37.589Z,-4.8
2018-12-02T00:24:48.947Z,-5
2018-12-02T00:25:38.726Z,-5
2018-12-02T00:26:29.077Z,-5
2018-12-02T00:27:18.837Z,-5
2018-12-02T00:28:09.132Z,-5
2018-12-02T00:28:59.197Z,-5
2018-12-02T00:29:49.274Z,-5.1
2018-12-02T00:30:39.651Z,-5.1
2018-12-02T00:31:29.397Z,-5.1
2018-12-02T00:32:19.443Z,-5.1
2018-12-02T00:33:09.232Z,-5.1
2018-12-02T00:33:59.549Z,-5.1
2018-12-02T00:34:49.340Z,-5.1
2018-12-02T00:35:39.677Z,-5.1
2018-12-02T00:36:29.734Z,-5.1
2018-12-02T00:37:19.513Z,-5.2
2018-12-02T00:38:09.866Z,-5.2
2018-12-02T00:38:59.629Z,-5.2
2018-12-02T00:39:49.411Z,-5.2
2018-12-02T00:40:39.747Z,-5.3
2018-12-02T00:41:30.091Z,-5.3
2018-12-02T00:42:20.181Z,-5.3
2018-12-02T00:43:10.201Z,-5.3
2018-12-02T00:44:00.236Z,-5.3
2018-12-02T00:44:50.301Z,-5.3
2018-12-02T00:45:39.814Z,-5.3
2018-12-02T00:46:29.601Z,-5.3
2018-12-02T00:47:19.929Z,-5.3
2018-12-02T00:48:10.266Z,-5.4
2018-12-02T00:49:00.838Z,-5.4
2018-12-02T00:49:50.383Z,-5.4
2018-12-02T00:50:40.156Z,-5.4
2018-12-02T00:51:30.763Z,-5.4
2018-12-02T00:52:20.831Z,-5.4
2018-12-02T00:53:10.878Z,-5.4
2018-12-02T00:54:00.913Z,-5.4
2018-12-02T00:54:50.731Z,-5.5
2018-12-02T00:55:41.301Z,-5.5
2018-12-02T00:56:30.561Z,-5.5
2018-12-02T00:57:21.159Z,-5.5
2018-12-02T00:58:11.220Z,-5.6
2018-12-02T00:59:00.723Z,-5.6
2018-12-02T00:59:51.333Z,-5.6
2018-12-02T01:00:40.813Z,-5.6
2018-12-02T01:01:31.186Z,-5.6
2018-12-02T01:02:21.503Z,-5.6
2018-12-02T01:03:11.582Z,-5.6
2018-12-02T01:04:01.626Z,-5.6
2018-12-02T01:04:51.410Z,-5.6
2018-12-02T01:05:41.512Z,-5.6
2018-12-02T01:06:31.800Z,-5.6
2018-12-02T01:07:21.569Z,-5.6
2018-12-02T01:08:11.633Z,-5.7
2018-12-02T01:09:01.405Z,-5.7
2018-12-02T01:09:51.747Z,-5.7
2018-12-02T01:10:41.807Z,-5.7
2018-12-02T01:11:31.870Z,-5.7
2018-12-02T01:12:21.927Z,-5.7
2018-12-02T01:13:12.252Z,-5.8
2018-12-02T01:14:02.620Z,-5.8
2018-12-02T01:14:52.417Z,-5.8
2018-12-02T01:15:42.181Z,-5.8
2018-12-02T01:16:32.490Z,-5.8
2018-12-02T01:17:22.541Z,-5.8
2018-12-02T01:18:12.329Z,-5.8
2018-12-02T01:19:02.381Z,-5.8
2018-12-02T01:19:52.436Z,-5.8
2018-12-02T01:20:42.206Z,-5.8
2018-12-02T01:21:32.561Z,-5.8
2018-12-02T01:22:22.606Z,-5.8
2018-12-02T01:23:12.938Z,-5.9
2018-12-02T01:24:02.447Z,-5.9
2018-12-02T01:24:53.061Z,-5.9
2018-12-02T01:25:43.119Z,-5.9
2018-12-02T01:26:33.174Z,-5.9
2018-12-02T01:27:23.218Z,-5.9
2018-12-02T01:28:13.051Z,-5.9
2018-12-02T01:29:03.108Z,-5.9
2018-12-02T01:29:53.380Z,-5.9
2018-12-02T01:30:43.438Z,-5.9
2018-12-02T01:31:33.233Z,-5.9
2018-12-02T01:32:23.305Z,-5.9
2018-12-02T01:33:12.800Z,-5.9
2018-12-02T01:34:03.685Z,-6
2018-12-02T01:34:52.912Z,-6
2018-12-02T01:35:43.797Z,-5.9
2018-12-02T01:36:33.302Z,-6
2018-12-02T01:37:23.354Z,-6
2018-12-02T01:38:13.411Z,-6
2018-12-02T01:39:03.790Z,-6.1
2018-12-02T01:39:53.789Z,-6.1
2018-12-02T01:40:43.583Z,-6.1
2018-12-02T01:41:33.917Z,-6.1
2018-12-02T01:42:24.237Z,-6.1
2018-12-02T01:43:13.762Z,-6.1
2018-12-02T01:44:04.355Z,-6.1
2018-12-02T01:44:54.425Z,-6.1
2018-12-02T01:45:44.475Z,-6.1
2018-12-02T01:46:34.264Z,-6.2
2018-12-02T01:47:24.319Z,-6.1
2018-12-02T01:48:14.102Z,-6.2
2018-12-02T01:49:04.722Z,-6.2
2018-12-02T01:49:54.205Z,-6.2
2018-12-02T01:50:44.554Z,-6.2
2018-12-02T01:51:34.319Z,-6.3
2018-12-02T01:52:24.959Z,-6.2
2018-12-02T01:53:14.422Z,-6.3
2018-12-02T01:54:05.049Z,-6.3
2018-12-02T01:54:54.842Z,-6.3
2018-12-02T01:55:44.886Z,-6.3
2018-12-02T01:56:34.941Z,-6.3
2018-12-02T01:57:25.571Z,-6.3
2018-12-02T01:58:14.780Z,-6.3
2018-12-02T01:59:05.448Z,-6.3
2018-12-02T01:59:54.901Z,-6.3
2018-12-02T02:00:45.229Z,-6.3
2018-12-02T02:01:35.294Z,-6.3
2018-12-02T02:02:25.650Z,-6.3
2018-12-02T02:03:15.933Z,-6.3
2018-12-02T02:04:05.733Z,-6.3
2018-12-02T02:04:55.791Z,-6.3
2018-12-02T02:05:45.828Z,-6.3
2018-12-02T02:06:35.908Z,-6.3
2018-12-02T02:07:25.970Z,-6.3
2018-12-02T02:08:15.995Z,-6.4
2018-12-02T02:09:06.068Z,-6.4
2018-12-02T02:09:56.135Z,-6.4
2018-12-02T02:10:45.918Z,-6.3
2018-12-02T02:11:36.258Z,-6.4
2018-12-02T02:12:25.770Z,-6.4
2018-12-02T02:13:16.095Z,-6.4
2018-12-02T02:14:06.420Z,-6.4
2018-12-02T02:14:56.477Z,-6.4
2018-12-02T02:15:45.980Z,-6.4
2018-12-02T02:16:36.602Z,-6.4
2018-12-02T02:17:26.378Z,-6.4
2018-12-02T02:18:16.165Z,-6.4
2018-12-02T02:19:06.227Z,-6.4
2018-12-02T02:19:56.562Z,-6.3
2018-12-02T02:20:46.880Z,-6.3
2018-12-02T02:21:36.395Z,-6.3
2018-12-02T02:22:26.432Z,-6.3
2018-12-02T02:23:17.037Z,-6.3
2018-12-02T02:24:06.847Z,-6.3
2018-12-02T02:24:56.892Z,-6.3
2018-12-02T02:25:47.227Z,-6.3
2018-12-02T02:26:37.271Z,-6.3
2018-12-02T02:27:27.334Z,-6.3
2018-12-02T02:28:17.354Z,-6.3
2018-12-02T02:29:06.947Z,-6.3
2018-12-02T02:29:57.234Z,-6.3
2018-12-02T02:30:47.572Z,-6.3
2018-12-02T02:31:37.637Z,-6.3
2018-12-02T02:32:27.696Z,-6.3
2018-12-02T02:33:17.198Z,-6.3
2018-12-02T02:34:07.818Z,-6.3
2018-12-02T02:34:57.039Z,-6.3
2018-12-02T02:35:47.907Z,-6.3
2018-12-02T02:36:37.428Z,-6.3
2018-12-02T02:37:28.012Z,-6.3
2018-12-02T02:38:18.366Z,-6.3
2018-12-02T02:39:07.884Z,-6.3
2018-12-02T02:39:58.191Z,-6.3
2018-12-02T02:40:47.991Z,-6.4
2018-12-02T02:41:38.311Z,-6.4
2018-12-02T02:42:28.107Z,-6.4
2018-12-02T02:43:18.731Z,-6.4
2018-12-02T02:44:08.458Z,-6.4
2018-12-02T02:44:57.701Z,-6.4
2018-12-02T02:45:48.356Z,-6.4
2018-12-02T02:46:38.699Z,-6.4
2018-12-02T02:47:28.434Z,-6.4
2018-12-02T02:48:18.508Z,-6.4
2018-12-02T02:49:08.536Z,-6.4
2018-12-02T02:49:58.329Z,-6.4
2018-12-02T02:50:48.393Z,-6.4
2018-12-02T02:51:38.735Z,-6.4
2018-12-02T02:52:28.803Z,-6.4
2018-12-02T02:53:18.563Z,-6.4
2018-12-02T02:54:09.169Z,-6.4
2018-12-02T02:54:59.225Z,-6.4
2018-12-02T02:55:49.278Z,-6.4
2018-12-02T02:56:38.797Z,-6.4
2018-12-02T02:57:29.126Z,-6.4
2018-12-02T02:58:19.230Z,-6.4
2018-12-02T02:59:09.504Z,-6.4
2018-12-02T02:59:59.572Z,-6.4
2018-12-02T03:00:48.798Z,-6.4
2018-12-02T03:01:39.691Z,-6.4
2018-12-02T03:02:29.752Z,-6.4
2018-12-02T03:03:19.512Z,-6.4
2018-12-02T03:04:09.605Z,-6.4
2018-12-02T03:04:59.907Z,-6.4
2018-12-02T03:05:49.994Z,-6.4
2018-12-02T03:06:39.747Z,-6.4
2018-12-02T03:07:29.823Z,-6.4
2018-12-02T03:08:20.150Z,-6.4
2018-12-02T03:09:10.462Z,-6.4
2018-12-02T03:10:00.255Z,-6.4
2018-12-02T03:10:50.028Z,-6.4
2018-12-02T03:11:40.364Z,-6.4
2018-12-02T03:12:30.426Z,-6.4
2018-12-02T03:13:20.489Z,-6.4
2018-12-02T03:14:10.841Z,-6.4
2018-12-02T03:15:00.338Z,-6.4
2018-12-02T03:15:50.382Z,-6.4
2018-12-02T03:16:40.709Z,-6.4
2018-12-02T03:17:30.793Z,-6.4
2018-12-02T03:18:20.829Z,-6.4
2018-12-02T03:19:10.863Z,-6.4
2018-12-02T03:20:00.647Z,-6.3
2018-12-02T03:20:50.446Z,-6.3
2018-12-02T03:21:40.506Z,-6.3
2018-12-02T03:22:30.836Z,-6.3
2018-12-02T03:23:20.896Z,-6.3
2018-12-02T03:24:11.232Z,-6.3
2018-12-02T03:25:01.018Z,-6.3
2018-12-02T03:25:51.072Z,-6.3
2018-12-02T03:26:41.393Z,-6.3
2018-12-02T03:27:30.938Z,-6.3
2018-12-02T03:28:20.977Z,-6.3
2018-12-02T03:29:11.560Z,-6.3
2018-12-02T03:30:01.707Z,-6.3
2018-12-02T03:30:51.456Z,-6.3
2018-12-02T03:31:41.814Z,-6.3
2018-12-02T03:32:31.562Z,-6.3
2018-12-02T03:33:21.643Z,-6.3
2018-12-02T03:34:11.362Z,-6.3
2018-12-02T03:35:01.990Z,-6.3
2018-12-02T03:35:52.037Z,-6.3
2018-12-02T03:36:41.517Z,-6.3
2018-12-02T03:37:31.875Z,-6.3
2018-12-02T03:38:21.922Z,-6.3
2018-12-02T03:39:11.982Z,-6.3
2018-12-02T03:40:02.344Z,-6.3
2018-12-02T03:40:52.093Z,-6.3
2018-12-02T03:41:42.155Z,-6.3
2018-12-02T03:42:32.541Z,-6.3
2018-12-02T03:43:22.539Z,-6.3
2018-12-02T03:44:12.059Z,-6.3
2018-12-02T03:45:02.937Z,-6.3
2018-12-02T03:45:52.156Z,-6.3
2018-12-02T03:46:42.835Z,-6.3
2018-12-02T03:47:32.274Z,-6.4
2018-12-02T03:48:22.878Z,-6.4
2018-12-02T03:49:12.678Z,-6.4
2018-12-02T03:50:02.717Z,-6.4
2018-12-02T03:50:52.507Z,-6.4
2018-12-02T03:51:42.853Z,-6.4
2018-12-02T03:52:33.459Z,-6.4
2018-12-02T03:53:22.956Z,-6.4
2018-12-02T03:54:13.017Z,-6.4
2018-12-02T03:55:03.329Z,-6.4
2018-12-02T03:55:53.386Z,-6.4
2018-12-02T03:56:43.461Z,-6.4
2018-12-02T03:57:33.284Z,-6.4
2018-12-02T03:58:23.556Z,-6.4
2018-12-02T03:59:13.626Z,-6.4
2018-12-02T04:00:03.173Z,-6.4
2018-12-02T04:00:53.507Z,-6.4
2018-12-02T04:01:43.791Z,-6.4
2018-12-02T04:02:33.568Z,-6.4
2018-12-02T04:03:23.913Z,-6.4
2018-12-02T04:04:13.411Z,-6.4
2018-12-02T04:05:03.794Z,-6.4
2018-12-02T04:05:54.081Z,-6.4
2018-12-02T04:06:44.133Z,-6.4
2018-12-02T04:07:34.165Z,-6.4
2018-12-02T04:08:23.986Z,-6.4
2018-12-02T04:09:13.763Z,-6.4
2018-12-02T04:10:04.351Z,-6.4
2018-12-02T04:10:54.421Z,-6.4
2018-12-02T04:11:43.938Z,-6.4
2018-12-02T04:12:34.536Z,-6.4
2018-12-02T04:13:24.305Z,-6.4
2018-12-02T04:14:14.648Z,-6.4
2018-12-02T04:15:04.428Z,-6.4
2018-12-02T04:15:54.749Z,-6.4
2018-12-02T04:16:44.826Z,-6.3
2018-12-02T04:17:35.126Z,-6.4
2018-12-02T04:18:24.668Z,-6.4
2018-12-02T04:19:14.717Z,-6.3
2018-12-02T04:20:04.506Z,-6.4
2018-12-02T04:20:55.107Z,-6.4
2018-12-02T04:21:44.880Z,-6.4
2018-12-02T04:22:34.940Z,-6.4
2018-12-02T04:23:25.045Z,-6.4
2018-12-02T04:24:15.055Z,-6.4
2018-12-02T04:25:05.393Z,-6.4
2018-12-02T04:25:54.673Z,-6.4
2018-12-02T04:26:45.503Z,-6.4
2018-12-02T04:27:34.995Z,-6.4
2018-12-02T04:28:25.343Z,-6.4
2018-12-02T04:29:15.405Z,-6.4
2018-12-02T04:30:05.733Z,-6.4
2018-12-02T04:30:56.094Z,-6.4
2018-12-02T04:31:45.570Z,-6.4
2018-12-02T04:32:35.363Z,-6.4
2018-12-02T04:33:25.945Z,-6.4
2018-12-02T04:34:16.050Z,-6.4
2018-12-02T04:35:06.092Z,-6.4
2018-12-02T04:35:55.907Z,-6.4
2018-12-02T04:36:46.215Z,-6.4
2018-12-02T04:54:02.999Z,-6.5
2018-12-02T04:54:53.234Z,-6.5
2018-12-02T04:55:42.753Z,-6.5
2018-12-02T04:56:33.063Z,-6.6
2018-12-02T04:57:23.138Z,-6.6
2018-12-02T04:58:13.471Z,-6.6
2018-12-02T04:59:03.807Z,-6.6
2018-12-02T04:59:53.584Z,-6.6
2018-12-02T05:00:43.346Z,-6.6
2018-12-02T05:01:33.439Z,-6.6
2018-12-02T05:02:23.455Z,-6.6
2018-12-02T05:03:13.798Z,-6.6
2018-12-02T05:04:03.619Z,-6.7
2018-12-02T05:04:53.898Z,-6.7
2018-12-02T05:05:43.669Z,-6.7
2018-12-02T05:06:34.011Z,-6.7
2018-12-02T05:07:23.808Z,-6.7
2018-12-02T05:08:14.120Z,-6.7
2018-12-02T05:09:03.926Z,-6.7
2018-12-02T05:09:54.043Z,-6.7
2018-12-02T05:10:44.020Z,-6.7
2018-12-02T05:11:34.093Z,-6.8
2018-12-02T05:12:24.145Z,-6.7
2018-12-02T05:13:14.193Z,-6.8
2018-12-02T05:14:04.530Z,-6.8
2018-12-02T05:14:54.565Z,-6.8
2018-12-02T05:15:45.195Z,-6.8
2018-12-02T05:16:34.425Z,-6.8
2018-12-02T05:17:24.745Z,-6.8
2018-12-02T05:18:14.807Z,-6.8
2018-12-02T05:19:04.590Z,-6.8
2018-12-02T05:19:55.168Z,-6.9
2018-12-02T05:20:44.172Z,-6.9
2018-12-02T05:21:35.052Z,-6.9
2018-12-02T05:22:24.838Z,-6.9
2018-12-02T05:23:14.885Z,-6.9
2018-12-02T05:24:05.205Z,-6.9
2018-12-02T05:24:55.271Z,-6.9
2018-12-02T05:25:45.322Z,-6.9
2018-12-02T05:26:35.376Z,-6.9
2018-12-02T05:27:25.170Z,-6.9
2018-12-02T05:28:14.970Z,-6.9
2018-12-02T05:29:05.014Z,-6.9
2018-12-02T05:29:55.657Z,-6.9
2018-12-02T05:30:45.404Z,-6.9
2018-12-02T05:31:35.447Z,-6.9
2018-12-02T05:32:25.781Z,-6.9
2018-12-02T05:33:15.282Z,-7
2018-12-02T05:34:05.671Z,-7
2018-12-02T05:34:55.953Z,-7
2018-12-02T05:35:45.451Z,-7
2018-12-02T05:36:36.126Z,-7.1
2018-12-02T05:37:26.123Z,-7.1
2018-12-02T05:38:15.628Z,-7.1
2018-12-02T05:39:06.283Z,-7.1
2018-12-02T05:39:56.043Z,-7.1
2018-12-02T05:40:45.797Z,-7.1
2018-12-02T05:41:36.650Z,-7.1
2018-12-02T05:42:26.453Z,-7.1
2018-12-02T05:43:15.980Z,-7.1
2018-12-02T05:44:06.293Z,-7.1
2018-12-02T05:44:56.395Z,-7.1
2018-12-02T05:45:46.405Z,-7.2
2018-12-02T05:46:36.720Z,-7.2
2018-12-02T05:47:26.808Z,-7.2
2018-12-02T05:48:16.585Z,-7.2
2018-12-02T05:49:06.645Z,-7.2
2018-12-02T05:49:56.417Z,-7.2
2018-12-02T05:50:46.748Z,-7.2
2018-12-02T05:51:37.393Z,-7.2
2018-12-02T05:52:26.865Z,-7.2
2018-12-02T05:53:16.927Z,-7.3
2018-12-02T05:54:07.254Z,-7.3
2018-12-02T05:54:56.765Z,-7.3
2018-12-02T05:55:47.107Z,-7.3
2018-12-02T05:56:37.659Z,-7.3
2018-12-02T05:57:27.483Z,-7.3
2018-12-02T05:58:17.278Z,-7.3
2018-12-02T05:59:07.324Z,-7.3
2018-12-02T05:59:57.381Z,-7.3
2018-12-02T06:00:47.439Z,-7.3
2018-12-02T06:01:38.026Z,-7.3
2018-12-02T06:02:27.832Z,-7.3
2018-12-02T06:03:17.882Z,-7.2
2018-12-02T06:04:07.404Z,-7.3
2018-12-02T06:04:57.714Z,-7.3
2018-12-02T06:05:48.059Z,-7.3
2018-12-02T06:06:38.169Z,-7.2
2018-12-02T06:07:27.909Z,-7.3
2018-12-02T06:08:17.954Z,-7.3
2018-12-02T06:09:08.326Z,-7.2
2018-12-02T06:09:58.341Z,-7.2
2018-12-02T06:10:48.409Z,-7.2
2018-12-02T06:11:37.909Z,-7.2
2018-12-02T06:12:28.511Z,-7.2
2018-12-02T06:13:18.296Z,-7.1
2018-12-02T06:14:08.341Z,-7.1
2018-12-02T06:14:58.126Z,-7.1
2018-12-02T06:15:48.737Z,-7.1
2018-12-02T06:16:38.799Z,-7.1
2018-12-02T06:17:28.860Z,-7.1
2018-12-02T06:18:18.906Z,-7.1
2018-12-02T06:19:08.963Z,-7.1
2018-12-02T06:20:05.186Z,-7
2018-12-02T06:20:48.804Z,-7
2018-12-02T06:21:39.186Z,-6.9
2018-12-02T06:22:28.922Z,-6.9
2018-12-02T06:23:18.966Z,-6.9
2018-12-02T06:24:09.308Z,-6.9
2018-12-02T06:24:59.358Z,-6.9
2018-12-02T06:25:49.423Z,-6.8
2018-12-02T06:26:39.261Z,-6.8
2018-12-02T06:27:29.256Z,-6.8
2018-12-02T06:28:19.592Z,-6.7
2018-12-02T06:29:09.365Z,-6.7
2018-12-02T06:29:59.155Z,-6.6
2018-12-02T06:30:49.755Z,-6.6
2018-12-02T06:31:39.829Z,-6.6
2018-12-02T06:32:29.876Z,-6.5
2018-12-02T06:33:19.940Z,-6.5
2018-12-02T06:34:09.438Z,-6.4
2018-12-02T06:34:59.485Z,-6.4
2018-12-02T06:35:49.832Z,-6.4
2018-12-02T06:36:39.603Z,-6.3
2018-12-02T06:37:30.202Z,-6.3
2018-12-02T06:38:20.270Z,-6.3
2018-12-02T06:39:10.050Z,-6.2
2018-12-02T06:40:00.380Z,-6.1
2018-12-02T06:40:49.615Z,-6.1
2018-12-02T06:41:40.742Z,-5.9
2018-12-02T06:42:30.541Z,-5.9
2018-12-02T06:43:20.347Z,-5.8
2018-12-02T06:44:10.387Z,-5.8
2018-12-02T06:45:00.721Z,-5.6
2018-12-02T06:45:50.498Z,-5.6
2018-12-02T06:46:40.296Z,-5.4
2018-12-02T06:47:30.882Z,-5.3
2018-12-02T06:48:20.940Z,-5.2
2018-12-02T06:49:11.010Z,-5.1
2018-12-02T06:50:01.064Z,-5
2018-12-02T06:50:51.147Z,-4.9
2018-12-02T06:51:41.172Z,-4.8
2018-12-02T06:52:30.673Z,-4.6
2018-12-02T06:53:21.286Z,-4.5
2018-12-02T06:54:11.586Z,-4.4
2018-12-02T06:55:01.389Z,-4.3
2018-12-02T06:55:51.193Z,-4.1
2018-12-02T06:56:41.236Z,-4
2018-12-02T06:57:31.596Z,-3.8
2018-12-02T06:58:21.361Z,-3.7
2018-12-02T06:59:11.678Z,-3.6
2018-12-02T07:00:01.184Z,-3.4
2018-12-02T07:00:51.796Z,-3.3
2018-12-02T07:01:41.858Z,-3.1
2018-12-02T07:02:31.483Z,-2.8
2018-12-02T07:03:21.966Z,-2.6
2018-12-02T07:04:12.018Z,-2.3
2018-12-02T07:05:02.093Z,-1.9
2018-12-02T07:05:52.140Z,-1.5
2018-12-02T07:06:41.941Z,-1.1
2018-12-02T07:07:31.965Z,-0.7
2018-12-02T07:08:22.080Z,-0.3
2018-12-02T07:09:12.357Z,0.2
2018-12-02T07:10:01.881Z,0.7
2018-12-02T07:10:52.195Z,1.1
2018-12-02T07:11:42.517Z,1.5
2018-12-02T07:12:32.295Z,1.9
2018-12-02T07:13:22.937Z,2.3
2018-12-02T07:14:12.717Z,2.8
2018-12-02T07:15:02.224Z,3.2
2018-12-02T07:15:52.001Z,3.6
2018-12-02T07:16:42.867Z,4.1
2018-12-02T07:17:32.929Z,4.6
2018-12-02T07:18:23.079Z,5.1
2018-12-02T07:19:12.764Z,5.6
2018-12-02T07:20:03.092Z,6.1
2018-12-02T07:20:52.869Z,6.5
2018-12-02T07:21:43.219Z,7
2018-12-02T07:22:33.564Z,7.4
2018-12-02T07:23:23.569Z,7.9
2018-12-02T07:24:13.107Z,8.3
2018-12-02T07:25:02.899Z,8.8
2018-12-02T07:25:53.490Z,9.3
2018-12-02T07:26:43.553Z,9.7
2018-12-02T07:27:33.602Z,10.2
2018-12-02T07:28:23.659Z,10.6
2018-12-02T07:29:13.784Z,11.1
2018-12-02T07:30:03.021Z,11.6
2018-12-02T07:30:53.564Z,12
2018-12-02T07:31:43.881Z,12.4
2018-12-02T07:32:33.951Z,12.9
2018-12-02T07:33:24.011Z,13.4
2018-12-02T07:34:13.791Z,13.8
2018-12-02T07:35:04.089Z,14.3
2018-12-02T07:35:53.923Z,14.7
2018-12-02T07:36:44.236Z,15.1
2018-12-02T07:37:34.293Z,15.6
2018-12-02T07:38:23.786Z,16.1
2018-12-02T07:39:14.403Z,16.5
2018-12-02T07:40:04.494Z,16.9
2018-12-02T07:40:53.961Z,17.3
2018-12-02T07:41:44.308Z,17.8
2018-12-02T07:42:34.636Z,18.3
2018-12-02T07:44:14.756Z,19.1
2018-12-02T07:45:04.540Z,19.6
2018-12-02T07:45:54.828Z,20.1
2018-12-02T07:46:44.656Z,20.6
2018-12-02T07:47:34.713Z,21
2018-12-02T07:48:24.271Z,21.4
2018-12-02T07:49:14.813Z,21.9
2018-12-02T07:50:04.678Z,22.4
2018-12-02T07:50:55.176Z,22.8
2018-12-02T07:51:45.260Z,23.3
2018-12-02T07:52:35.335Z,23.8
2018-12-02T07:53:24.839Z,24.2
2018-12-02T07:54:15.458Z,24.6
2018-12-02T07:55:05.515Z,25.1
2018-12-02T07:55:55.650Z,25.6
2018-12-02T07:56:45.619Z,26.1
2018-12-02T07:57:35.668Z,26.5
2018-12-02T07:58:25.709Z,26.9
2018-12-02T07:59:15.492Z,27.4
2018-12-02T08:00:05.565Z,27.9
2018-12-02T08:00:55.890Z,28.3
2018-12-02T08:01:45.954Z,28.8
2018-12-02T08:02:36.010Z,29.2
2018-12-02T08:03:25.525Z,29.6
2018-12-02T08:04:15.556Z,30.1
2018-12-02T08:05:05.897Z,30.5
2018-12-02T08:05:56.254Z,30.9
2018-12-02T08:06:46.017Z,31.4
2018-12-02T08:07:36.364Z,31.9
2018-12-02T08:08:25.848Z,32.3
2018-12-02T08:09:16.449Z,32.8
2018-12-02T08:10:06.484Z,33.2
2018-12-02T08:10:56.577Z,33.6
2018-12-02T08:11:46.359Z,34
2018-12-02T08:12:36.420Z,34.4
2018-12-02T08:13:26.763Z,34.8
2018-12-02T08:14:16.590Z,35.2
2018-12-02T08:15:06.914Z,35.6
2018-12-02T08:15:56.368Z,35.9
2018-12-02T08:16:46.994Z,36.3
2018-12-02T08:17:36.488Z,36.6
2018-12-02T08:18:26.818Z,37
2018-12-02T08:19:16.873Z,37.3
2018-12-02T08:20:07.206Z,37.7
2018-12-02T08:20:57.268Z,38.1
2018-12-02T08:21:46.817Z,38.4
2018-12-02T08:22:37.378Z,38.7
2018-12-02T08:23:27.153Z,39
2018-12-02T08:24:17.495Z,39.3
2018-12-02T08:25:07.550Z,39.6
2018-12-02T08:25:57.332Z,39.9
2018-12-02T08:26:47.912Z,40.3
2018-12-02T08:27:37.727Z,40.6
2018-12-02T08:28:27.507Z,40.9
2018-12-02T08:29:17.557Z,41.1
2018-12-02T08:30:07.917Z,41.4
2018-12-02T08:30:57.682Z,41.7
2018-12-02T08:31:47.792Z,41.9
2018-12-02T08:32:38.102Z,42.3
2018-12-02T08:33:27.855Z,42.6
2018-12-02T08:34:17.627Z,42.9
2018-12-02T08:35:08.233Z,43.2
2018-12-02T08:35:58.022Z,43.6
2018-12-02T08:36:47.849Z,43.9
2018-12-02T08:37:38.126Z,44.3
2018-12-02T08:38:28.194Z,44.6
2018-12-02T08:39:18.256Z,44.9
2018-12-02T08:40:08.057Z,45.2
2018-12-02T08:40:58.646Z,45.5
2018-12-02T08:41:48.701Z,45.8
2018-12-02T08:42:38.766Z,46.1
2018-12-02T08:43:28.833Z,46.5
2018-12-02T08:44:18.604Z,46.8
2018-12-02T08:45:08.378Z,47.1
2018-12-02T08:45:59.061Z,47.3
2018-12-02T08:46:49.072Z,47.6
2018-12-02T08:47:39.160Z,47.9
2018-12-02T08:48:28.671Z,48.3
2018-12-02T08:49:18.663Z,48.6
2018-12-02T08:50:09.079Z,48.9
2018-12-02T08:50:58.788Z,49.2
2018-12-02T08:51:49.416Z,49.5
2018-12-02T08:52:39.486Z,49.9
2018-12-02T09:08:28.430Z,54.6
2018-12-02T09:09:18.787Z,54.8
2018-12-02T09:10:07.995Z,55
2018-12-02T09:10:58.597Z,55.3
2018-12-02T09:11:48.370Z,55.4
2018-12-02T09:12:38.425Z,55.7
2018-12-02T09:13:28.221Z,55.9
2018-12-02T09:14:18.774Z,56.1
2018-12-02T09:15:08.856Z,56.6
2018-12-02T09:15:58.917Z,58.2
2018-12-02T09:16:48.971Z,58.1
2018-12-02T09:17:38.496Z,56.1
2018-12-02T09:18:29.102Z,53.2
2018-12-02T09:19:19.124Z,49.4
2018-12-02T09:20:08.926Z,47.3
2018-12-02T09:20:58.454Z,45.9
2018-12-02T09:21:48.787Z,44.9
2018-12-02T09:22:39.096Z,44.1
2018-12-02T09:23:29.216Z,43.6
2018-12-02T09:24:19.246Z,43.3
2018-12-02T09:25:09.569Z,43.3
2018-12-02T09:25:59.625Z,43.3
2018-12-02T09:26:49.679Z,43.4
2018-12-02T09:27:39.453Z,43.7
2018-12-02T09:28:29.793Z,44
2018-12-02T09:29:19.855Z,44.3
2018-12-02T09:30:09.914Z,44.7
2018-12-02T09:30:59.421Z,45.3
2018-12-02T09:31:49.741Z,45.8
2018-12-02T09:32:40.073Z,46.4
2018-12-02T09:33:29.857Z,47.1
2018-12-02T09:34:20.205Z,47.8
2018-12-02T09:35:10.275Z,48.4
2018-12-02T09:36:00.051Z,48.9
2018-12-02T09:36:50.110Z,49.5
2018-12-02T09:37:40.433Z,50.1
2018-12-02T09:38:30.221Z,50.6
2018-12-02T09:39:20.073Z,51.1
2018-12-02T09:40:10.055Z,51.5
2018-12-02T09:41:00.125Z,52
2018-12-02T09:41:50.171Z,52.4
2018-12-02T09:42:40.781Z,52.9
2018-12-02T09:43:30.558Z,53.3
2018-12-02T09:44:20.923Z,53.7
2018-12-02T09:45:10.416Z,54.1
2018-12-02T09:46:01.265Z,54.4
2018-12-02T09:46:50.523Z,54.9
2018-12-02T09:47:41.125Z,55.3
2018-12-02T09:48:31.190Z,55.6
2018-12-02T09:49:20.500Z,55.9
2018-12-02T09:50:11.557Z,57.2
2018-12-02T09:51:01.373Z,58.4
2018-12-02T09:51:51.437Z,56.7
2018-12-02T09:52:40.946Z,54.6
2018-12-02T09:53:31.560Z,51.6
2018-12-02T09:54:24.820Z,49.2
2018-12-02T09:55:11.390Z,47.5
2018-12-02T09:56:01.733Z,46.5
2018-12-02T09:56:51.774Z,45.9
2018-12-02T09:57:41.344Z,45.6
2018-12-02T09:58:31.905Z,45.5
2018-12-02T09:59:21.665Z,45.6
2018-12-02T10:00:12.039Z,45.9
2018-12-02T10:01:01.531Z,46.4
2018-12-02T10:01:51.850Z,47
2018-12-02T10:02:41.641Z,47.7
2018-12-02T10:03:31.975Z,48.4
2018-12-02T10:04:23.001Z,49.1
2018-12-02T10:05:12.089Z,49.8
2018-12-02T10:06:02.457Z,50.4
2018-12-02T10:06:52.217Z,50.9
2018-12-02T10:07:42.265Z,51.5
2018-12-02T10:08:32.589Z,52
2018-12-02T10:09:22.372Z,52.5
2018-12-02T10:10:12.152Z,53
2018-12-02T10:11:02.222Z,53.6
2018-12-02T10:11:52.537Z,53.9
2018-12-02T10:12:42.612Z,54.4
2018-12-02T10:13:32.661Z,54.8
2018-12-02T10:14:23.002Z,55.2
2018-12-02T10:15:13.054Z,55.5
2018-12-02T10:16:03.146Z,56.5
2018-12-02T10:16:53.176Z,58.3
2018-12-02T10:17:42.953Z,57.5
2018-12-02T10:18:33.298Z,56.3
2018-12-02T10:19:22.818Z,54.3
2018-12-02T10:20:13.138Z,51.7
2018-12-02T10:21:03.766Z,49.5
2018-12-02T10:21:53.243Z,48.1
2018-12-02T10:22:43.036Z,47.3
2018-12-02T10:23:33.356Z,47
2018-12-02T10:24:23.688Z,46.8
2018-12-02T10:25:13.474Z,46.8
2018-12-02T10:26:04.055Z,47
2018-12-02T10:26:53.602Z,47.3
2018-12-02T10:27:43.385Z,47.6
2018-12-02T10:28:32.949Z,48
2018-12-02T10:29:24.038Z,48.4
2018-12-02T10:30:13.552Z,48.8
2018-12-02T10:31:03.927Z,49.3
2018-12-02T10:31:54.222Z,49.7
2018-12-02T10:32:44.285Z,50.1
2018-12-02T10:33:34.054Z,50.6
2018-12-02T10:34:23.837Z,51.1
2018-12-02T10:35:13.715Z,51.4
2018-12-02T10:36:04.488Z,51.9
2018-12-02T10:36:54.616Z,52.3
2018-12-02T10:37:44.066Z,52.7
2018-12-02T10:38:34.677Z,53
2018-12-02T10:39:24.195Z,53.4
2018-12-02T10:40:14.802Z,53.6
2018-12-02T10:41:04.617Z,53.9
2018-12-02T10:41:54.615Z,54.3
2018-12-02T10:42:44.705Z,54.5
2018-12-02T10:43:35.032Z,54.8
2018-12-02T10:44:25.077Z,55.1
2018-12-02T10:45:15.159Z,56.4
2018-12-02T10:46:04.974Z,58.1
2018-12-02T10:46:54.769Z,57.6
2018-12-02T10:47:45.049Z,56.6
2018-12-02T10:48:35.091Z,54.5
2018-12-02T10:49:25.182Z,51.8
2018-12-02T10:50:15.505Z,49.8
2018-12-02T10:51:05.334Z,48.6
2018-12-02T10:51:55.376Z,47.9
2018-12-02T10:52:45.229Z,47.6
2018-12-02T10:53:35.171Z,47.3
2018-12-02T10:54:25.233Z,47.3
2018-12-02T10:55:15.840Z,47.3
2018-12-02T10:56:05.423Z,47.5
2018-12-02T10:56:55.961Z,47.8
2018-12-02T10:57:45.733Z,48.1
2018-12-02T10:58:36.376Z,48.5
2018-12-02T10:59:26.145Z,48.9
2018-12-02T11:00:15.918Z,49.3
2018-12-02T11:01:05.698Z,49.6
2018-12-02T11:01:56.026Z,50.1
2018-12-02T11:02:46.127Z,50.4
2018-12-02T11:03:35.988Z,50.8
2018-12-02T11:04:25.933Z,51.3
2018-12-02T11:05:16.550Z,51.6
2018-12-02T11:06:06.613Z,52.1
2018-12-02T11:07:45.878Z,52.8
2018-12-02T11:08:36.815Z,53
2018-12-02T11:09:25.990Z,53.3
2018-12-02T11:10:16.600Z,53.6
2018-12-02T11:11:06.399Z,53.8
2018-12-02T11:11:56.740Z,54.1
2018-12-02T11:12:47.113Z,54.3
2018-12-02T11:13:36.847Z,54.6
2018-12-02T11:14:27.180Z,54.8
2018-12-02T11:15:17.238Z,55.9
2018-12-02T11:16:07.022Z,57.6
2018-12-02T11:16:57.355Z,57.3
2018-12-02T11:17:46.594Z,56.6
2018-12-02T11:18:37.470Z,55
2018-12-02T11:19:26.981Z,52.1
2018-12-02T11:20:17.307Z,49.7
2018-12-02T11:21:07.437Z,47.8
2018-12-02T11:21:57.434Z,46.7
2018-12-02T11:22:47.277Z,46.1
2018-12-02T11:23:37.557Z,45.8
2018-12-02T11:24:28.134Z,45.8
2018-12-02T11:25:17.984Z,45.8
2018-12-02T11:26:07.441Z,46
2018-12-02T11:26:57.784Z,46.2
2018-12-02T11:27:48.167Z,46.5
2018-12-02T11:28:37.611Z,46.8
2018-12-02T11:29:28.226Z,47.1
2018-12-02T11:30:18.290Z,47.5
2018-12-02T11:31:08.059Z,47.8
2018-12-02T11:31:58.404Z,48.2
2018-12-02T11:32:48.482Z,48.4
2018-12-02T11:33:37.971Z,48.8
2018-12-02T11:34:28.579Z,49.1
2018-12-02T11:35:18.364Z,49.3
2018-12-02T11:36:08.479Z,49.6
2018-12-02T11:36:58.199Z,49.8
2018-12-02T11:37:48.538Z,50
2018-12-02T11:38:38.593Z,50.3
2018-12-02T11:39:28.399Z,50.6
2018-12-02T11:40:19.034Z,50.9
2018-12-02T11:41:09.064Z,51.1
2018-12-02T11:41:58.555Z,51.3
2018-12-02T11:42:48.615Z,51.6
2018-12-02T11:43:39.221Z,51.8
2018-12-02T11:44:29.286Z,52
2018-12-02T11:45:19.076Z,52.2
2018-12-02T11:46:09.415Z,52.3
2018-12-02T11:46:59.185Z,52.5
2018-12-02T11:47:49.260Z,52.7
2018-12-02T11:48:39.583Z,52.9
2018-12-02T11:49:29.629Z,53
2018-12-02T11:50:19.699Z,53.2
2018-12-02T11:51:09.755Z,53.3
2018-12-02T11:51:59.818Z,53.4
2018-12-02T11:52:49.884Z,53.4
2018-12-02T11:53:39.633Z,53.5
2018-12-02T11:54:30.002Z,53.6
2018-12-02T11:55:20.061Z,53.6
2018-12-02T11:56:10.367Z,53.6
2018-12-02T11:56:59.906Z,53.6
2018-12-02T11:57:50.244Z,53.6
2018-12-02T11:58:40.015Z,53.6
2018-12-02T11:59:30.403Z,53.6